createdAt,value
2022-08-17T00:00:51.662Z,0.00
2022-08-17T00:01:52.086Z,0.00
2022-08-17T00:02:43.229Z,0.00
2022-08-17T00:03:42.103Z,0.00
2022-08-17T00:04:42.856Z,0.00
2022-08-17T00:05:42.070Z,0.00
2022-08-17T00:06:42.062Z,0.00
2022-08-17T00:07:42.096Z,0.00
2022-08-17T00:08:42.041Z,0.00
2022-08-17T00:09:42.054Z,0.00
2022-08-17T00:10:42.026Z,0.00
2022-08-17T00:11:42.019Z,0.00
2022-08-17T00:12:44.519Z,0.00
2022-08-17T00:13:43.007Z,0.00
2022-08-17T00:14:41.992Z,0.00
2022-08-17T00:15:42.013Z,0.00
2022-08-17T00:16:56.074Z,0.00
2022-08-17T00:17:42.967Z,0.00
2022-08-17T00:19:05.801Z,0.00
2022-08-17T00:19:42.955Z,0.00
2022-08-17T00:20:41.973Z,0.00
2022-08-17T00:22:28.738Z,0.00
2022-08-17T00:22:42.939Z,0.00
2022-08-17T00:23:47.899Z,0.00
2022-08-17T00:24:42.917Z,0.00
2022-08-17T00:25:41.934Z,0.00
2022-08-17T00:26:44.951Z,0.00
2022-08-17T00:27:41.891Z,0.00
2022-08-17T00:28:41.883Z,0.00
2022-08-17T00:29:41.874Z,0.00
2022-08-17T00:30:50.871Z,0.00
2022-08-17T00:31:42.877Z,0.00
2022-08-17T00:33:15.011Z,0.00
2022-08-17T00:33:42.838Z,0.00
2022-08-17T00:34:41.831Z,0.00
2022-08-17T00:35:41.857Z,0.00
2022-08-17T00:36:41.817Z,0.00
2022-08-17T00:37:41.807Z,0.00
2022-08-17T00:38:41.802Z,0.00
2022-08-17T00:39:41.881Z,0.00
2022-08-17T00:40:44.938Z,0.00
2022-08-17T00:41:42.510Z,0.00
2022-08-17T00:42:41.772Z,0.00
2022-08-17T00:43:41.757Z,0.00
2022-08-17T00:44:41.755Z,0.00
2022-08-17T00:45:41.773Z,0.00
2022-08-17T00:46:41.735Z,0.00
2022-08-17T00:47:41.734Z,0.00
2022-08-17T00:48:41.722Z,0.00
2022-08-17T00:49:41.712Z,0.00
2022-08-17T00:50:41.731Z,0.00
2022-08-17T00:51:41.699Z,0.00
2022-08-17T00:52:41.760Z,0.00
2022-08-17T00:53:41.685Z,0.00
2022-08-17T00:54:42.302Z,0.00
2022-08-17T00:55:41.696Z,0.00
2022-08-17T00:56:41.659Z,0.00
2022-08-17T00:57:41.659Z,0.00
2022-08-17T00:58:41.649Z,0.00
2022-08-17T00:59:41.633Z,0.00
2022-08-17T01:00:41.855Z,0.00
2022-08-17T01:01:41.660Z,0.00
2022-08-17T01:02:42.974Z,0.00
2022-08-17T01:03:41.603Z,0.00
2022-08-17T01:04:41.592Z,0.00
2022-08-17T01:05:42.363Z,0.00
2022-08-17T01:06:41.582Z,0.00
2022-08-17T01:07:41.576Z,0.00
2022-08-17T01:08:41.555Z,0.00
2022-08-17T01:09:42.558Z,0.00
2022-08-17T01:11:00.334Z,0.00
2022-08-17T01:11:42.544Z,0.00
2022-08-17T01:12:41.545Z,0.00
2022-08-17T01:13:41.882Z,0.00
2022-08-17T01:14:41.524Z,0.00
2022-08-17T01:15:41.535Z,0.00
2022-08-17T01:16:41.511Z,0.00
2022-08-17T01:17:41.494Z,0.00
2022-08-17T01:18:41.490Z,0.00
2022-08-17T01:19:41.483Z,0.00
2022-08-17T01:20:48.203Z,0.00
2022-08-17T01:21:42.461Z,0.00
2022-08-17T01:22:41.456Z,0.00
2022-08-17T01:23:41.451Z,0.00
2022-08-17T01:24:41.440Z,0.00
2022-08-17T01:25:41.470Z,0.00
2022-08-17T01:26:41.426Z,0.00
2022-08-17T01:27:41.417Z,0.00
2022-08-17T01:28:55.084Z,0.00
2022-08-17T01:29:42.407Z,0.00
2022-08-17T01:30:58.402Z,0.00
2022-08-17T01:31:42.387Z,0.00
2022-08-17T01:32:41.380Z,0.00
2022-08-17T01:33:41.375Z,0.00
2022-08-17T01:34:43.762Z,0.00
2022-08-17T01:35:42.391Z,0.00
2022-08-17T01:36:41.346Z,0.00
2022-08-17T01:37:41.342Z,0.00
2022-08-17T01:38:41.345Z,0.00
2022-08-17T01:39:41.402Z,0.00
2022-08-17T01:40:41.340Z,0.00
2022-08-17T01:41:41.316Z,0.00
2022-08-17T01:42:41.303Z,0.00
2022-08-17T01:43:41.290Z,0.00
2022-08-17T01:44:41.286Z,0.00
2022-08-17T01:45:41.298Z,0.00
2022-08-17T01:46:41.270Z,0.00
2022-08-17T01:47:41.261Z,0.00
2022-08-17T01:48:41.255Z,0.00
2022-08-17T01:49:41.238Z,0.00
2022-08-17T01:50:41.258Z,0.00
2022-08-17T01:51:41.229Z,0.00
2022-08-17T01:52:41.229Z,0.00
2022-08-17T01:53:41.220Z,0.00
2022-08-17T01:54:41.206Z,0.00
2022-08-17T01:55:41.227Z,0.00
2022-08-17T01:56:41.193Z,0.00
2022-08-17T01:57:41.184Z,0.00
2022-08-17T01:58:41.183Z,0.00
2022-08-17T01:59:41.171Z,0.00
2022-08-17T02:00:46.734Z,0.00
2022-08-17T02:01:42.169Z,0.00
2022-08-17T02:02:41.148Z,0.00
2022-08-17T02:03:41.143Z,0.00
2022-08-17T02:04:42.138Z,0.00
2022-08-17T02:05:41.162Z,0.00
2022-08-17T02:06:52.721Z,0.00
2022-08-17T02:07:59.879Z,0.00
2022-08-17T02:09:01.712Z,0.00
2022-08-17T02:09:42.220Z,0.00
2022-08-17T02:10:46.815Z,0.00
2022-08-17T02:11:42.104Z,0.00
2022-08-17T02:12:41.074Z,0.00
2022-08-17T02:13:41.064Z,0.00
2022-08-17T02:14:41.059Z,0.00
2022-08-17T02:15:41.046Z,0.00
2022-08-17T02:16:41.064Z,0.00
2022-08-17T02:17:41.043Z,0.00
2022-08-17T02:18:41.035Z,0.00
2022-08-17T02:19:41.022Z,0.00
2022-08-17T02:20:42.490Z,0.00
2022-08-17T02:21:41.027Z,0.00
2022-08-17T02:22:40.994Z,0.00
2022-08-17T02:23:40.985Z,0.00
2022-08-17T02:25:00.454Z,0.00
2022-08-17T02:25:41.973Z,0.00
2022-08-17T02:26:40.985Z,0.00
2022-08-17T02:27:40.952Z,0.00
2022-08-17T02:28:40.951Z,0.00
2022-08-17T02:29:40.937Z,0.00
2022-08-17T02:31:02.154Z,0.00
2022-08-17T02:31:41.947Z,0.00
2022-08-17T02:32:40.919Z,0.00
2022-08-17T02:33:42.528Z,0.00
2022-08-17T02:34:40.910Z,0.00
2022-08-17T02:35:40.894Z,0.00
2022-08-17T02:36:40.908Z,0.00
2022-08-17T02:37:40.865Z,0.00
2022-08-17T02:38:41.869Z,0.00
2022-08-17T02:39:40.899Z,0.00
2022-08-17T02:40:40.855Z,0.00
2022-08-17T02:41:40.873Z,0.00
2022-08-17T02:42:40.835Z,0.00
2022-08-17T02:43:40.825Z,0.00
2022-08-17T02:44:40.806Z,0.00
2022-08-17T02:45:41.817Z,0.00
2022-08-17T02:46:40.832Z,0.00
2022-08-17T02:47:40.798Z,0.00
2022-08-17T02:48:40.794Z,0.00
2022-08-17T02:49:45.119Z,0.00
2022-08-17T02:50:41.776Z,0.00
2022-08-17T02:51:40.794Z,0.00
2022-08-17T02:53:02.094Z,0.00
2022-08-17T02:53:41.753Z,0.00
2022-08-17T02:54:42.397Z,0.00
2022-08-17T02:55:41.738Z,0.00
2022-08-17T02:56:40.756Z,0.00
2022-08-17T02:57:40.713Z,0.00
2022-08-17T02:58:40.714Z,0.00
2022-08-17T02:59:43.288Z,0.00
2022-08-17T03:00:41.714Z,0.00
2022-08-17T03:01:40.751Z,0.00
2022-08-17T03:02:40.685Z,0.00
2022-08-17T03:03:40.671Z,0.00
2022-08-17T03:04:40.669Z,0.00
2022-08-17T03:05:40.660Z,0.00
2022-08-17T03:06:40.677Z,0.00
2022-08-17T03:07:40.643Z,0.00
2022-08-17T03:08:40.648Z,0.00
2022-08-17T03:09:40.628Z,0.00
2022-08-17T03:10:40.621Z,0.00
2022-08-17T03:11:40.638Z,0.00
2022-08-17T03:12:40.607Z,0.00
2022-08-17T03:13:40.598Z,0.00
2022-08-17T03:14:41.668Z,0.00
2022-08-17T03:15:41.588Z,0.00
2022-08-17T03:16:40.609Z,0.00
2022-08-17T03:17:40.569Z,0.00
2022-08-17T03:18:40.556Z,0.00
2022-08-17T03:19:42.885Z,0.00
2022-08-17T03:20:40.547Z,0.00
2022-08-17T03:21:40.564Z,0.00
2022-08-17T03:22:40.570Z,0.00
2022-08-17T03:23:40.533Z,0.00
2022-08-17T03:24:40.517Z,0.00
2022-08-17T03:25:40.520Z,0.00
2022-08-17T03:26:40.528Z,0.00
2022-08-17T03:27:42.048Z,0.00
2022-08-17T03:28:40.486Z,0.00
2022-08-17T03:29:40.485Z,0.00
2022-08-17T03:30:40.483Z,0.00
2022-08-17T03:31:40.491Z,0.00
2022-08-17T03:32:40.460Z,0.00
2022-08-17T03:33:40.458Z,0.00
2022-08-17T03:34:40.444Z,0.00
2022-08-17T03:35:40.532Z,0.00
2022-08-17T03:36:40.462Z,0.00
2022-08-17T03:37:40.422Z,0.00
2022-08-17T03:38:40.420Z,0.00
2022-08-17T03:39:40.434Z,0.00
2022-08-17T03:40:56.236Z,0.00
2022-08-17T03:41:41.421Z,0.00
2022-08-17T03:42:40.385Z,0.00
2022-08-17T03:43:40.377Z,0.00
2022-08-17T03:44:40.371Z,0.00
2022-08-17T03:45:40.363Z,0.00
2022-08-17T03:46:40.385Z,0.00
2022-08-17T03:47:40.346Z,0.00
2022-08-17T03:48:40.332Z,0.00
2022-08-17T03:49:40.326Z,0.00
2022-08-17T03:50:40.320Z,0.00
2022-08-17T03:51:40.345Z,5.62
2022-08-17T03:52:40.302Z,5.62
2022-08-17T03:53:40.299Z,5.62
2022-08-17T03:54:40.292Z,5.62
2022-08-17T03:55:40.285Z,11.25
2022-08-17T03:56:40.279Z,11.25
2022-08-17T03:57:40.291Z,11.25
2022-08-17T03:58:40.261Z,16.88
2022-08-17T03:59:40.247Z,16.88
2022-08-17T04:00:40.237Z,16.88
2022-08-17T04:01:40.314Z,16.88
2022-08-17T04:02:40.258Z,16.88
2022-08-17T04:03:40.222Z,22.50
2022-08-17T04:04:40.213Z,22.50
2022-08-17T04:05:40.210Z,22.50
2022-08-17T04:06:40.201Z,22.50
2022-08-17T04:07:40.215Z,22.50
2022-08-17T04:08:40.188Z,28.12
2022-08-17T04:09:40.176Z,28.12
2022-08-17T04:10:44.921Z,28.12
2022-08-17T04:11:42.155Z,28.12
2022-08-17T04:12:40.174Z,33.75
2022-08-17T04:13:40.146Z,33.75
2022-08-17T04:14:52.732Z,39.38
2022-08-17T04:15:42.124Z,39.38
2022-08-17T04:16:40.123Z,45.00
2022-08-17T04:17:40.140Z,50.62
2022-08-17T04:18:40.103Z,56.25
2022-08-17T04:19:40.105Z,56.25
2022-08-17T04:20:40.090Z,61.88
2022-08-17T04:21:40.082Z,61.88
2022-08-17T04:22:40.101Z,61.88
2022-08-17T04:23:40.060Z,67.50
2022-08-17T04:24:40.050Z,73.12
2022-08-17T04:25:40.050Z,78.75
2022-08-17T04:26:52.771Z,78.75
2022-08-17T04:27:41.065Z,84.38
2022-08-17T04:28:40.023Z,95.62
2022-08-17T04:29:54.547Z,101.25
2022-08-17T04:30:41.024Z,106.88
2022-08-17T04:31:40.006Z,118.12
2022-08-17T04:33:02.212Z,123.75
2022-08-17T04:33:40.988Z,129.38
2022-08-17T04:34:39.977Z,140.62
2022-08-17T04:35:39.974Z,163.12
2022-08-17T04:36:39.965Z,191.25
2022-08-17T04:37:40.988Z,236.25
2022-08-17T04:38:39.945Z,331.88
2022-08-17T04:39:39.995Z,433.12
2022-08-17T04:40:39.934Z,472.50
2022-08-17T04:41:39.923Z,382.50
2022-08-17T04:42:39.947Z,298.12
2022-08-17T04:43:39.913Z,264.38
2022-08-17T04:44:39.905Z,236.25
2022-08-17T04:45:39.892Z,247.50
2022-08-17T04:46:39.884Z,270.00
2022-08-17T04:47:39.901Z,286.88
2022-08-17T04:48:39.869Z,320.62
2022-08-17T04:49:39.860Z,354.38
2022-08-17T04:50:39.854Z,331.88
2022-08-17T04:51:39.844Z,326.25
2022-08-17T04:52:43.249Z,286.88
2022-08-17T04:53:40.837Z,298.12
2022-08-17T04:54:39.822Z,309.38
2022-08-17T04:55:39.814Z,376.88
2022-08-17T04:56:39.809Z,410.62
2022-08-17T04:57:44.529Z,753.75
2022-08-17T04:58:41.787Z,967.50
2022-08-17T04:59:39.785Z,1029.38
2022-08-17T05:00:39.775Z,1063.12
2022-08-17T05:01:39.857Z,1310.62
2022-08-17T05:02:39.792Z,1389.38
2022-08-17T05:03:40.752Z,1423.12
2022-08-17T05:04:39.745Z,1400.62
2022-08-17T05:05:39.739Z,1327.50
2022-08-17T05:06:39.728Z,1355.62
2022-08-17T05:07:39.752Z,1068.75
2022-08-17T05:08:39.715Z,1023.75
2022-08-17T05:09:39.704Z,1406.25
2022-08-17T05:10:45.087Z,1530.00
2022-08-17T05:11:40.692Z,1710.00
2022-08-17T05:12:39.712Z,1546.88
2022-08-17T05:13:39.685Z,1805.62
2022-08-17T05:14:39.671Z,1783.12
2022-08-17T05:15:39.663Z,1800.00
2022-08-17T05:16:40.653Z,1738.12
2022-08-17T05:17:39.671Z,1518.75
2022-08-17T05:18:39.660Z,1513.12
2022-08-17T05:19:39.631Z,1293.75
2022-08-17T05:20:39.622Z,1209.38
2022-08-17T05:21:39.612Z,1395.00
2022-08-17T05:22:39.640Z,1777.50
2022-08-17T05:23:42.429Z,1805.62
2022-08-17T05:24:43.694Z,1895.62
2022-08-17T05:25:40.590Z,1980.00
2022-08-17T05:26:39.584Z,2008.12
2022-08-17T05:27:39.604Z,2008.12
2022-08-17T05:28:39.567Z,1968.75
2022-08-17T05:29:39.562Z,2092.50
2022-08-17T05:30:39.545Z,2120.62
2022-08-17T05:31:40.545Z,2278.12
2022-08-17T05:32:40.458Z,2199.38
2022-08-17T05:33:44.448Z,2300.62
2022-08-17T05:34:41.523Z,2143.12
2022-08-17T05:35:39.513Z,1991.25
2022-08-17T05:36:43.093Z,1946.25
2022-08-17T05:37:39.501Z,2070.00
2022-08-17T05:38:39.520Z,1856.25
2022-08-17T05:39:39.520Z,1873.12
2022-08-17T05:40:39.479Z,2626.88
2022-08-17T05:41:39.467Z,2520.00
2022-08-17T05:42:39.468Z,2171.25
2022-08-17T05:43:39.486Z,2283.75
2022-08-17T05:44:39.462Z,2334.38
2022-08-17T05:45:54.337Z,2711.25
2022-08-17T05:46:40.438Z,2677.50
2022-08-17T05:47:39.436Z,2756.25
2022-08-17T05:48:40.444Z,2739.38
2022-08-17T05:49:39.424Z,2756.25
2022-08-17T05:50:39.413Z,2761.88
2022-08-17T05:51:39.403Z,2756.25
2022-08-17T05:52:39.392Z,2801.25
2022-08-17T05:53:39.415Z,2806.88
2022-08-17T05:54:39.385Z,2812.50
2022-08-17T05:55:39.376Z,2801.25
2022-08-17T05:56:39.372Z,2823.75
2022-08-17T05:57:42.448Z,2829.38
2022-08-17T05:58:40.383Z,2733.75
2022-08-17T05:59:39.351Z,2986.88
2022-08-17T06:00:42.056Z,3037.50
2022-08-17T06:01:39.360Z,2548.12
2022-08-17T06:02:42.012Z,2480.62
2022-08-17T06:03:40.345Z,2941.88
2022-08-17T06:04:39.318Z,3003.75
2022-08-17T06:05:39.305Z,3121.88
2022-08-17T06:06:39.303Z,2941.88
2022-08-17T06:07:39.297Z,2840.62
2022-08-17T06:08:39.313Z,2829.38
2022-08-17T06:09:39.286Z,2801.25
2022-08-17T06:10:39.277Z,2694.38
2022-08-17T06:11:39.269Z,2598.75
2022-08-17T06:12:39.256Z,2666.25
2022-08-17T06:13:39.283Z,2733.75
2022-08-17T06:14:39.255Z,2570.62
2022-08-17T06:15:39.242Z,2733.75
2022-08-17T06:16:39.239Z,2812.50
2022-08-17T06:17:39.227Z,2818.12
2022-08-17T06:18:39.254Z,2711.25
2022-08-17T06:19:39.217Z,2626.88
2022-08-17T06:20:39.214Z,2722.50
2022-08-17T06:21:39.193Z,2626.88
2022-08-17T06:22:40.200Z,2716.88
2022-08-17T06:23:39.211Z,2615.62
2022-08-17T06:24:39.188Z,2565.00
2022-08-17T06:25:39.211Z,2733.75
2022-08-17T06:26:42.951Z,2671.88
2022-08-17T06:27:40.166Z,2970.00
2022-08-17T06:28:39.188Z,2851.88
2022-08-17T06:29:39.159Z,2812.50
2022-08-17T06:30:59.711Z,2863.12
2022-08-17T06:31:40.148Z,2891.25
2022-08-17T06:32:39.138Z,2863.12
2022-08-17T06:33:39.158Z,2896.88
2022-08-17T06:34:39.128Z,2632.50
2022-08-17T06:35:39.149Z,2806.88
2022-08-17T06:36:39.112Z,2953.12
2022-08-17T06:37:39.113Z,3105.00
2022-08-17T06:38:39.134Z,3110.62
2022-08-17T06:39:39.136Z,3121.88
2022-08-17T06:40:39.089Z,3144.38
2022-08-17T06:41:39.083Z,3138.75
2022-08-17T06:43:05.026Z,3121.88
2022-08-17T06:43:40.267Z,3240.00
2022-08-17T06:44:50.226Z,3195.00
2022-08-17T06:45:40.078Z,3127.50
2022-08-17T06:46:39.058Z,3150.00
2022-08-17T06:47:39.046Z,3262.50
2022-08-17T06:48:39.043Z,3256.88
2022-08-17T06:49:39.061Z,3285.00
2022-08-17T06:50:39.031Z,3313.12
2022-08-17T06:51:39.026Z,3279.38
2022-08-17T06:52:45.826Z,3330.00
2022-08-17T06:53:40.008Z,3301.88
2022-08-17T06:54:39.042Z,2295.00
2022-08-17T06:55:38.997Z,3324.38
2022-08-17T06:56:53.835Z,3386.25
2022-08-17T06:57:39.987Z,3414.38
2022-08-17T06:58:40.257Z,3386.25
2022-08-17T06:59:54.611Z,3436.88
2022-08-17T07:00:40.054Z,3465.00
2022-08-17T07:01:39.037Z,3526.88
2022-08-17T07:02:52.000Z,3600.00
2022-08-17T07:03:39.956Z,3543.75
2022-08-17T07:04:38.970Z,2058.75
2022-08-17T07:05:38.965Z,1833.75
2022-08-17T07:06:38.938Z,1822.50
2022-08-17T07:07:38.934Z,2126.25
2022-08-17T07:08:38.952Z,3611.25
2022-08-17T07:09:38.926Z,2908.12
2022-08-17T07:10:38.915Z,3301.88
2022-08-17T07:11:38.911Z,3054.38
2022-08-17T07:12:38.905Z,3425.62
2022-08-17T07:13:38.928Z,2598.75
2022-08-17T07:14:38.898Z,3510.00
2022-08-17T07:15:38.892Z,3763.12
2022-08-17T07:16:38.885Z,3943.12
2022-08-17T07:17:56.849Z,4033.12
2022-08-17T07:18:39.901Z,3459.38
2022-08-17T07:19:38.873Z,3706.88
2022-08-17T07:20:38.862Z,3594.38
2022-08-17T07:21:38.861Z,3780.00
2022-08-17T07:22:57.217Z,3813.75
2022-08-17T07:23:39.872Z,3690.00
2022-08-17T07:24:38.843Z,3678.75
2022-08-17T07:25:38.834Z,3729.38
2022-08-17T07:26:38.842Z,3774.38
2022-08-17T07:27:38.827Z,3808.12
2022-08-17T07:28:38.848Z,3836.25
2022-08-17T07:29:38.819Z,3841.88
2022-08-17T07:30:46.892Z,3802.50
2022-08-17T07:31:39.811Z,3740.62
2022-08-17T07:32:38.798Z,3706.88
2022-08-17T07:33:38.823Z,3723.75
2022-08-17T07:34:38.788Z,3780.00
2022-08-17T07:35:41.451Z,3791.25
2022-08-17T07:36:39.777Z,3740.62
2022-08-17T07:37:38.769Z,3684.38
2022-08-17T07:38:38.796Z,3543.75
2022-08-17T07:39:59.619Z,3481.88
2022-08-17T07:40:39.826Z,3487.50
2022-08-17T07:41:57.120Z,3639.38
2022-08-17T07:42:44.522Z,3706.88
2022-08-17T07:43:40.773Z,3690.00
2022-08-17T07:44:38.738Z,3583.12
2022-08-17T07:45:38.747Z,3735.00
2022-08-17T07:46:38.727Z,3667.50
2022-08-17T07:47:38.723Z,3836.25
2022-08-17T07:48:38.719Z,3751.88
2022-08-17T07:49:38.737Z,3532.50
2022-08-17T07:50:38.706Z,3200.62
2022-08-17T07:51:38.704Z,3166.88
2022-08-17T07:52:51.099Z,3189.38
2022-08-17T07:53:39.691Z,3448.12
2022-08-17T07:54:38.712Z,3735.00
2022-08-17T07:55:38.686Z,3695.62
2022-08-17T07:56:38.675Z,3605.62
2022-08-17T07:57:38.672Z,3830.62
2022-08-17T07:58:38.662Z,3825.00
2022-08-17T07:59:38.760Z,3780.00
2022-08-17T08:00:38.653Z,3538.12
2022-08-17T08:01:41.779Z,3661.88
2022-08-17T08:02:38.663Z,3746.25
2022-08-17T08:03:38.638Z,3318.75
2022-08-17T08:05:49.322Z,3600.00
2022-08-17T08:06:39.616Z,3330.00
2022-08-17T08:07:38.612Z,3346.88
2022-08-17T08:08:38.615Z,3048.75
2022-08-17T08:09:38.628Z,3420.00
2022-08-17T08:10:38.598Z,3048.75
2022-08-17T08:11:44.108Z,3307.50
2022-08-17T08:12:39.593Z,3060.00
2022-08-17T08:13:38.582Z,2790.00
2022-08-17T08:14:38.597Z,2261.25
2022-08-17T08:15:38.569Z,1856.25
2022-08-17T08:16:39.561Z,1800.00
2022-08-17T08:17:38.556Z,1760.62
2022-08-17T08:18:55.852Z,1811.25
2022-08-17T08:19:39.579Z,1850.62
2022-08-17T08:20:53.206Z,1665.00
2022-08-17T08:21:39.540Z,1681.88
2022-08-17T08:22:38.535Z,1636.88
2022-08-17T08:23:38.528Z,1440.00
2022-08-17T08:24:38.548Z,1423.12
2022-08-17T08:25:38.518Z,1355.62
2022-08-17T08:26:38.512Z,1580.62
2022-08-17T08:27:38.506Z,1575.00
2022-08-17T08:28:38.500Z,1704.38
2022-08-17T08:29:38.494Z,1501.88
2022-08-17T08:30:38.516Z,1383.75
2022-08-17T08:31:42.164Z,1440.00
2022-08-17T08:32:39.479Z,1411.88
2022-08-17T08:33:38.480Z,1372.50
2022-08-17T08:34:58.817Z,1181.25
2022-08-17T08:35:39.490Z,1175.62
2022-08-17T08:37:14.036Z,1231.88
2022-08-17T08:37:42.901Z,1147.50
2022-08-17T08:38:39.449Z,1383.75
2022-08-17T08:39:38.480Z,1569.38
2022-08-17T08:40:38.466Z,1445.62
2022-08-17T08:41:39.145Z,1456.88
2022-08-17T08:42:38.438Z,1535.62
2022-08-17T08:43:38.425Z,1681.88
2022-08-17T08:44:59.848Z,1265.62
2022-08-17T08:45:39.439Z,1288.12
2022-08-17T08:46:38.405Z,1822.50
2022-08-17T08:47:38.397Z,1136.25
2022-08-17T08:48:52.945Z,1586.25
2022-08-17T08:50:02.704Z,1209.38
2022-08-17T08:50:40.412Z,1057.50
2022-08-17T08:51:38.378Z,1096.88
2022-08-17T08:52:38.378Z,1063.12
2022-08-17T08:53:38.362Z,1141.88
2022-08-17T08:54:38.355Z,956.25
2022-08-17T08:55:38.377Z,967.50
2022-08-17T08:56:38.342Z,1265.62
2022-08-17T08:57:38.349Z,1507.50
2022-08-17T08:58:41.887Z,1462.50
2022-08-17T08:59:42.139Z,1794.38
2022-08-17T09:00:39.355Z,1496.25
2022-08-17T09:01:38.363Z,2013.75
2022-08-17T09:02:38.310Z,2103.75
2022-08-17T09:03:52.173Z,1996.88
2022-08-17T09:05:02.588Z,1906.88
2022-08-17T09:05:40.312Z,1366.88
2022-08-17T09:06:39.845Z,894.38
2022-08-17T09:07:38.278Z,883.12
2022-08-17T09:08:38.275Z,1091.25
2022-08-17T09:09:38.266Z,922.50
2022-08-17T09:10:38.292Z,877.50
2022-08-17T09:12:01.099Z,1563.75
2022-08-17T09:12:39.245Z,1091.25
2022-08-17T09:13:38.242Z,911.25
2022-08-17T09:14:45.029Z,1080.00
2022-08-17T09:15:39.260Z,804.38
2022-08-17T09:16:38.225Z,708.75
2022-08-17T09:17:38.220Z,658.12
2022-08-17T09:19:00.614Z,624.38
2022-08-17T09:19:39.213Z,607.50
2022-08-17T09:20:38.201Z,596.25
2022-08-17T09:21:38.256Z,596.25
2022-08-17T09:22:39.189Z,601.88
2022-08-17T09:23:38.191Z,630.00
2022-08-17T09:24:38.177Z,691.88
2022-08-17T09:25:38.172Z,928.12
2022-08-17T09:26:38.285Z,1535.62
2022-08-17T09:27:38.161Z,1423.12
2022-08-17T09:28:38.163Z,1288.12
2022-08-17T09:29:38.148Z,1372.50
2022-08-17T09:30:38.136Z,1310.62
2022-08-17T09:31:48.849Z,1243.12
2022-08-17T09:32:39.123Z,1456.88
2022-08-17T09:33:38.114Z,1355.62
2022-08-17T09:34:38.116Z,1147.50
2022-08-17T09:35:38.103Z,1220.62
2022-08-17T09:36:38.303Z,967.50
2022-08-17T09:37:38.088Z,832.50
2022-08-17T09:38:38.084Z,1141.88
2022-08-17T09:39:38.099Z,1147.50
2022-08-17T09:40:38.070Z,939.38
2022-08-17T09:41:38.314Z,1091.25
2022-08-17T09:42:39.060Z,1057.50
2022-08-17T09:43:38.059Z,911.25
2022-08-17T09:44:38.044Z,995.62
2022-08-17T09:45:38.037Z,961.88
2022-08-17T09:46:39.012Z,736.88
2022-08-17T09:47:39.025Z,753.75
2022-08-17T09:48:38.012Z,680.62
2022-08-17T09:49:39.011Z,658.12
2022-08-17T09:51:05.173Z,669.38
2022-08-17T09:51:39.019Z,663.75
2022-08-17T09:52:38.670Z,646.88
2022-08-17T09:53:37.981Z,618.75
2022-08-17T09:54:39.715Z,601.88
2022-08-17T09:55:38.969Z,601.88
2022-08-17T09:56:42.338Z,618.75
2022-08-17T09:57:38.953Z,635.62
2022-08-17T09:58:37.951Z,663.75
2022-08-17T09:59:38.732Z,697.50
2022-08-17T10:00:37.936Z,731.25
2022-08-17T10:01:37.990Z,748.12
2022-08-17T10:02:37.925Z,776.25
2022-08-17T10:03:37.915Z,815.62
2022-08-17T10:04:37.904Z,815.62
2022-08-17T10:05:37.898Z,810.00
2022-08-17T10:06:37.921Z,798.75
2022-08-17T10:07:37.888Z,804.38
2022-08-17T10:08:37.880Z,804.38
2022-08-17T10:09:37.872Z,804.38
2022-08-17T10:10:37.866Z,793.12
2022-08-17T10:11:37.888Z,776.25
2022-08-17T10:12:38.854Z,759.38
2022-08-17T10:13:38.847Z,753.75
2022-08-17T10:14:44.152Z,742.50
2022-08-17T10:15:42.456Z,720.00
2022-08-17T10:16:37.855Z,708.75
2022-08-17T10:17:37.821Z,697.50
2022-08-17T10:18:37.836Z,691.88
2022-08-17T10:19:37.808Z,680.62
2022-08-17T10:20:37.802Z,669.38
2022-08-17T10:21:37.814Z,680.62
2022-08-17T10:22:38.268Z,675.00
2022-08-17T10:23:37.783Z,669.38
2022-08-17T10:24:37.776Z,652.50
2022-08-17T10:25:53.958Z,624.38
2022-08-17T10:26:46.240Z,607.50
2022-08-17T10:27:38.746Z,596.25
2022-08-17T10:28:37.742Z,590.62
2022-08-17T10:29:48.862Z,590.62
2022-08-17T10:30:38.729Z,596.25
2022-08-17T10:31:37.757Z,596.25
2022-08-17T10:32:37.712Z,596.25
2022-08-17T10:33:37.717Z,596.25
2022-08-17T10:34:38.877Z,590.62
2022-08-17T10:35:37.690Z,579.38
2022-08-17T10:36:37.711Z,573.75
2022-08-17T10:37:37.678Z,568.12
2022-08-17T10:38:37.673Z,556.88
2022-08-17T10:39:52.344Z,556.88
2022-08-17T10:40:38.652Z,556.88
2022-08-17T10:41:40.409Z,556.88
2022-08-17T10:42:38.656Z,568.12
2022-08-17T10:43:37.634Z,579.38
2022-08-17T10:44:41.047Z,590.62
2022-08-17T10:45:37.620Z,607.50
2022-08-17T10:46:37.715Z,618.75
2022-08-17T10:47:54.697Z,607.50
2022-08-17T10:48:39.600Z,590.62
2022-08-17T10:49:37.594Z,573.75
2022-08-17T10:50:37.588Z,556.88
2022-08-17T10:51:37.606Z,545.62
2022-08-17T10:52:37.572Z,534.38
2022-08-17T10:53:37.568Z,523.12
2022-08-17T10:54:37.555Z,517.50
2022-08-17T10:55:37.552Z,511.88
2022-08-17T10:56:37.571Z,500.62
2022-08-17T10:57:37.544Z,495.00
2022-08-17T10:58:37.532Z,489.38
2022-08-17T10:59:37.528Z,478.12
2022-08-17T11:00:37.559Z,472.50
2022-08-17T11:01:37.538Z,466.88
2022-08-17T11:02:37.502Z,466.88
2022-08-17T11:03:37.496Z,461.25
2022-08-17T11:04:37.491Z,461.25
2022-08-17T11:05:41.503Z,466.88
2022-08-17T11:06:39.594Z,466.88
2022-08-17T11:07:37.466Z,472.50
2022-08-17T11:08:37.460Z,472.50
2022-08-17T11:09:37.452Z,478.12
2022-08-17T11:10:37.441Z,478.12
2022-08-17T11:11:37.437Z,472.50
2022-08-17T11:12:37.497Z,466.88
2022-08-17T11:13:37.425Z,455.62
2022-08-17T11:14:37.417Z,450.00
2022-08-17T11:15:37.399Z,433.12
2022-08-17T11:16:38.429Z,416.25
2022-08-17T11:17:37.405Z,399.38
2022-08-17T11:18:37.409Z,388.12
2022-08-17T11:19:37.383Z,376.88
2022-08-17T11:20:37.377Z,365.62
2022-08-17T11:21:37.385Z,354.38
2022-08-17T11:22:37.403Z,343.12
2022-08-17T11:23:37.358Z,331.88
2022-08-17T11:24:37.365Z,320.62
2022-08-17T11:25:37.351Z,309.38
2022-08-17T11:26:37.337Z,303.75
2022-08-17T11:27:37.360Z,298.12
2022-08-17T11:28:37.324Z,298.12
2022-08-17T11:29:37.334Z,298.12
2022-08-17T11:30:37.335Z,303.75
2022-08-17T11:31:39.156Z,315.00
2022-08-17T11:32:37.326Z,326.25
2022-08-17T11:33:38.226Z,331.88
2022-08-17T11:34:37.271Z,337.50
2022-08-17T11:35:37.264Z,343.12
2022-08-17T11:36:37.265Z,343.12
2022-08-17T11:37:37.292Z,343.12
2022-08-17T11:38:37.244Z,348.75
2022-08-17T11:39:37.328Z,360.00
2022-08-17T11:40:37.230Z,365.62
2022-08-17T11:41:37.250Z,382.50
2022-08-17T11:42:37.241Z,399.38
2022-08-17T11:43:42.293Z,416.25
2022-08-17T11:44:39.199Z,433.12
2022-08-17T11:45:37.193Z,450.00
2022-08-17T11:46:37.185Z,461.25
2022-08-17T11:47:37.204Z,466.88
2022-08-17T11:48:37.176Z,478.12
2022-08-17T11:49:37.178Z,483.75
2022-08-17T11:50:37.158Z,495.00
2022-08-17T11:51:37.154Z,511.88
2022-08-17T11:52:37.163Z,528.75
2022-08-17T11:53:37.161Z,551.25
2022-08-17T11:54:37.129Z,573.75
2022-08-17T11:55:40.675Z,607.50
2022-08-17T11:56:39.107Z,624.38
2022-08-17T11:57:37.130Z,669.38
2022-08-17T11:58:37.096Z,630.00
2022-08-17T11:59:37.095Z,618.75
2022-08-17T12:00:37.080Z,669.38
2022-08-17T12:01:37.075Z,630.00
2022-08-17T12:02:37.097Z,607.50
2022-08-17T12:03:37.058Z,601.88
2022-08-17T12:04:37.141Z,607.50
2022-08-17T12:05:37.042Z,596.25
2022-08-17T12:06:38.038Z,579.38
2022-08-17T12:07:37.056Z,556.88
2022-08-17T12:08:37.023Z,545.62
2022-08-17T12:09:37.015Z,534.38
2022-08-17T12:10:37.012Z,528.75
2022-08-17T12:11:55.339Z,517.50
2022-08-17T12:12:38.018Z,511.88
2022-08-17T12:13:39.542Z,506.25
2022-08-17T12:15:05.967Z,495.00
2022-08-17T12:15:38.969Z,483.75
2022-08-17T12:16:36.965Z,472.50
2022-08-17T12:17:40.863Z,461.25
2022-08-17T12:18:37.952Z,450.00
2022-08-17T12:19:36.943Z,438.75
2022-08-17T12:20:36.936Z,427.50
2022-08-17T12:21:36.927Z,416.25
2022-08-17T12:22:36.950Z,399.38
2022-08-17T12:23:36.915Z,388.12
2022-08-17T12:24:36.902Z,376.88
2022-08-17T12:25:36.902Z,360.00
2022-08-17T12:26:36.886Z,348.75
2022-08-17T12:27:46.143Z,331.88
2022-08-17T12:28:37.881Z,320.62
2022-08-17T12:29:38.727Z,309.38
2022-08-17T12:30:36.867Z,298.12
2022-08-17T12:31:36.861Z,292.50
2022-08-17T12:32:36.876Z,286.88
2022-08-17T12:33:36.848Z,281.25
2022-08-17T12:34:36.837Z,275.62
2022-08-17T12:35:36.828Z,264.38
2022-08-17T12:36:36.823Z,258.75
2022-08-17T12:37:36.839Z,247.50